sensor_id;sensor_type;location;lat;lon;timestamp;P1;durP1;ratioP1;P2;durP2;ratioP2
17398;SDS011;8817;48.170;8.592;2023-06-24T00:02:12;12.40;;;11.40;;
17398;SDS011;8817;48.170;8.592;2023-06-24T00:04:39;11.70;;;10.80;;
17398;SDS011;8817;48.170;8.592;2023-06-24T00:07:06;12.32;;;11.32;;
17398;SDS011;8817;48.170;8.592;2023-06-24T00:09:32;11.80;;;10.90;;
17398;SDS011;8817;48.170;8.592;2023-06-24T00:11:59;11.80;;;10.95;;
17398;SDS011;8817;48.170;8.592;2023-06-24T00:14:28;12.00;;;11.10;;
17398;SDS011;8817;48.170;8.592;2023-06-24T00:16:55;12.20;;;11.18;;
17398;SDS011;8817;48.170;8.592;2023-06-24T00:19:24;12.10;;;11.15;;
17398;SDS011;8817;48.170;8.592;2023-06-24T00:21:52;12.05;;;11.02;;
17398;SDS011;8817;48.170;8.592;2023-06-24T00:24:19;12.57;;;11.50;;
17398;SDS011;8817;48.170;8.592;2023-06-24T00:26:50;11.95;;;11.02;;
17398;SDS011;8817;48.170;8.592;2023-06-24T00:29:17;12.20;;;11.20;;
17398;SDS011;8817;48.170;8.592;2023-06-24T00:31:44;11.88;;;10.88;;
17398;SDS011;8817;48.170;8.592;2023-06-24T00:34:11;11.80;;;10.80;;
17398;SDS011;8817;48.170;8.592;2023-06-24T00:36:39;11.57;;;10.65;;
17398;SDS011;8817;48.170;8.592;2023-06-24T00:39:06;11.40;;;10.60;;
17398;SDS011;8817;48.170;8.592;2023-06-24T00:41:33;11.75;;;10.85;;
17398;SDS011;8817;48.170;8.592;2023-06-24T00:44:01;12.07;;;11.05;;
17398;SDS011;8817;48.170;8.592;2023-06-24T00:46:28;12.30;;;11.23;;
17398;SDS011;8817;48.170;8.592;2023-06-24T00:49:11;11.50;;;10.65;;
17398;SDS011;8817;48.170;8.592;2023-06-24T00:51:40;12.63;;;11.48;;
17398;SDS011;8817;48.170;8.592;2023-06-24T00:54:15;11.80;;;11.00;;
17398;SDS011;8817;48.170;8.592;2023-06-24T00:56:42;12.35;;;11.35;;
17398;SDS011;8817;48.170;8.592;2023-06-24T00:59:09;11.25;;;10.55;;
17398;SDS011;8817;48.170;8.592;2023-06-24T01:01:38;12.43;;;11.43;;
17398;SDS011;8817;48.170;8.592;2023-06-24T01:04:06;12.30;;;11.30;;
17398;SDS011;8817;48.170;8.592;2023-06-24T01:06:35;11.60;;;10.77;;
17398;SDS011;8817;48.170;8.592;2023-06-24T01:09:09;12.30;;;11.30;;
17398;SDS011;8817;48.170;8.592;2023-06-24T01:11:36;12.13;;;11.23;;
17398;SDS011;8817;48.170;8.592;2023-06-24T01:14:03;11.90;;;11.05;;
17398;SDS011;8817;48.170;8.592;2023-06-24T01:16:33;12.05;;;11.07;;
17398;SDS011;8817;48.170;8.592;2023-06-24T01:19:11;11.80;;;10.90;;
17398;SDS011;8817;48.170;8.592;2023-06-24T01:22:06;11.80;;;10.90;;
17398;SDS011;8817;48.170;8.592;2023-06-24T01:24:48;12.00;;;11.00;;
17398;SDS011;8817;48.170;8.592;2023-06-24T01:30:38;12.20;;;11.23;;
17398;SDS011;8817;48.170;8.592;2023-06-24T01:33:18;12.10;;;11.20;;
17398;SDS011;8817;48.170;8.592;2023-06-24T01:35:51;11.75;;;10.75;;
17398;SDS011;8817;48.170;8.592;2023-06-24T01:38:21;11.48;;;10.57;;
17398;SDS011;8817;48.170;8.592;2023-06-24T01:40:50;12.18;;;11.18;;
17398;SDS011;8817;48.170;8.592;2023-06-24T01:43:18;12.45;;;11.20;;
17398;SDS011;8817;48.170;8.592;2023-06-24T01:45:48;11.82;;;10.93;;
17398;SDS011;8817;48.170;8.592;2023-06-24T01:48:21;11.82;;;10.93;;
17398;SDS011;8817;48.170;8.592;2023-06-24T01:50:53;12.00;;;11.00;;
17398;SDS011;8817;48.170;8.592;2023-06-24T01:53:24;11.57;;;10.68;;
17398;SDS011;8817;48.170;8.592;2023-06-24T01:55:53;11.52;;;10.73;;
17398;SDS011;8817;48.170;8.592;2023-06-24T01:58:21;11.63;;;10.75;;
17398;SDS011;8817;48.170;8.592;2023-06-24T02:00:49;11.90;;;11.00;;
17398;SDS011;8817;48.170;8.592;2023-06-24T02:03:17;11.50;;;10.70;;
17398;SDS011;8817;48.170;8.592;2023-06-24T02:05:47;12.02;;;11.13;;
17398;SDS011;8817;48.170;8.592;2023-06-24T02:08:15;11.95;;;11.02;;
17398;SDS011;8817;48.170;8.592;2023-06-24T02:10:44;12.13;;;11.15;;
17398;SDS011;8817;48.170;8.592;2023-06-24T02:13:13;11.50;;;10.70;;
17398;SDS011;8817;48.170;8.592;2023-06-24T02:15:42;12.10;;;11.20;;
17398;SDS011;8817;48.170;8.592;2023-06-24T02:18:10;11.90;;;11.00;;
17398;SDS011;8817;48.170;8.592;2023-06-24T02:20:39;12.73;;;11.32;;
17398;SDS011;8817;48.170;8.592;2023-06-24T02:23:08;11.63;;;10.73;;
17398;SDS011;8817;48.170;8.592;2023-06-24T02:25:36;11.70;;;10.80;;
17398;SDS011;8817;48.170;8.592;2023-06-24T02:28:05;10.90;;;10.20;;
17398;SDS011;8817;48.170;8.592;2023-06-24T02:30:32;11.90;;;10.80;;
17398;SDS011;8817;48.170;8.592;2023-06-24T02:33:01;11.48;;;10.68;;
17398;SDS011;8817;48.170;8.592;2023-06-24T02:35:29;11.30;;;10.50;;
17398;SDS011;8817;48.170;8.592;2023-06-24T02:37:57;11.30;;;10.50;;
17398;SDS011;8817;48.170;8.592;2023-06-24T02:40:24;11.65;;;10.70;;
17398;SDS011;8817;48.170;8.592;2023-06-24T02:42:51;11.93;;;11.00;;
17398;SDS011;8817;48.170;8.592;2023-06-24T02:45:18;11.65;;;10.75;;
17398;SDS011;8817;48.170;8.592;2023-06-24T02:47:45;11.35;;;10.48;;
17398;SDS011;8817;48.170;8.592;2023-06-24T02:50:13;11.70;;;10.90;;
17398;SDS011;8817;48.170;8.592;2023-06-24T02:52:41;11.90;;;11.00;;
17398;SDS011;8817;48.170;8.592;2023-06-24T02:55:11;11.73;;;10.82;;
17398;SDS011;8817;48.170;8.592;2023-06-24T02:57:38;11.82;;;10.93;;
17398;SDS011;8817;48.170;8.592;2023-06-24T03:00:07;11.30;;;10.57;;
17398;SDS011;8817;48.170;8.592;2023-06-24T03:02:37;11.70;;;10.82;;
17398;SDS011;8817;48.170;8.592;2023-06-24T03:05:05;12.27;;;11.18;;
17398;SDS011;8817;48.170;8.592;2023-06-24T03:07:34;11.45;;;10.50;;
17398;SDS011;8817;48.170;8.592;2023-06-24T03:10:04;11.63;;;10.73;;
17398;SDS011;8817;48.170;8.592;2023-06-24T03:12:33;11.50;;;10.60;;
17398;SDS011;8817;48.170;8.592;2023-06-24T03:15:00;11.60;;;10.70;;
17398;SDS011;8817;48.170;8.592;2023-06-24T03:17:27;11.60;;;10.70;;
17398;SDS011;8817;48.170;8.592;2023-06-24T03:19:53;12.20;;;11.30;;
17398;SDS011;8817;48.170;8.592;2023-06-24T03:22:21;12.23;;;11.27;;
17398;SDS011;8817;48.170;8.592;2023-06-24T03:24:48;12.40;;;11.23;;
17398;SDS011;8817;48.170;8.592;2023-06-24T03:27:16;12.35;;;11.30;;
17398;SDS011;8817;48.170;8.592;2023-06-24T03:29:45;12.05;;;11.07;;
17398;SDS011;8817;48.170;8.592;2023-06-24T03:32:12;12.18;;;11.27;;
17398;SDS011;8817;48.170;8.592;2023-06-24T03:34:39;12.15;;;11.20;;
17398;SDS011;8817;48.170;8.592;2023-06-24T03:37:05;12.05;;;11.10;;
17398;SDS011;8817;48.170;8.592;2023-06-24T03:39:32;12.20;;;11.20;;
17398;SDS011;8817;48.170;8.592;2023-06-24T03:41:59;11.98;;;10.88;;
17398;SDS011;8817;48.170;8.592;2023-06-24T03:44:26;12.38;;;11.38;;
17398;SDS011;8817;48.170;8.592;2023-06-24T03:46:54;12.70;;;11.60;;
17398;SDS011;8817;48.170;8.592;2023-06-24T03:49:21;12.32;;;11.23;;
17398;SDS011;8817;48.170;8.592;2023-06-24T03:51:48;12.25;;;11.23;;
17398;SDS011;8817;48.170;8.592;2023-06-24T03:54:14;12.35;;;11.30;;
17398;SDS011;8817;48.170;8.592;2023-06-24T03:56:41;12.95;;;11.65;;
17398;SDS011;8817;48.170;8.592;2023-06-24T03:59:08;12.10;;;11.20;;
17398;SDS011;8817;48.170;8.592;2023-06-24T04:01:35;12.23;;;11.32;;
17398;SDS011;8817;48.170;8.592;2023-06-24T04:04:03;12.30;;;11.30;;
17398;SDS011;8817;48.170;8.592;2023-06-24T04:06:30;12.57;;;11.30;;
17398;SDS011;8817;48.170;8.592;2023-06-24T04:08:57;12.48;;;11.57;;
17398;SDS011;8817;48.170;8.592;2023-06-24T04:11:24;12.20;;;11.30;;
17398;SDS011;8817;48.170;8.592;2023-06-24T04:13:50;11.88;;;10.98;;
17398;SDS011;8817;48.170;8.592;2023-06-24T04:16:17;12.18;;;11.18;;
17398;SDS011;8817;48.170;8.592;2023-06-24T04:18:44;11.93;;;11.02;;
17398;SDS011;8817;48.170;8.592;2023-06-24T04:21:12;11.55;;;10.73;;
17398;SDS011;8817;48.170;8.592;2023-06-24T04:23:40;12.10;;;11.20;;
17398;SDS011;8817;48.170;8.592;2023-06-24T04:26:07;12.15;;;11.25;;
17398;SDS011;8817;48.170;8.592;2023-06-24T04:28:34;12.13;;;11.23;;
17398;SDS011;8817;48.170;8.592;2023-06-24T04:31:01;11.63;;;10.90;;
17398;SDS011;8817;48.170;8.592;2023-06-24T04:33:28;12.55;;;11.48;;
17398;SDS011;8817;48.170;8.592;2023-06-24T04:35:54;11.90;;;11.10;;
17398;SDS011;8817;48.170;8.592;2023-06-24T04:38:23;12.25;;;11.25;;
17398;SDS011;8817;48.170;8.592;2023-06-24T04:40:49;12.70;;;11.50;;
17398;SDS011;8817;48.170;8.592;2023-06-24T04:43:16;11.73;;;10.70;;
17398;SDS011;8817;48.170;8.592;2023-06-24T04:45:43;12.02;;;11.13;;
17398;SDS011;8817;48.170;8.592;2023-06-24T04:48:10;11.90;;;11.00;;
17398;SDS011;8817;48.170;8.592;2023-06-24T04:50:37;12.52;;;11.52;;
17398;SDS011;8817;48.170;8.592;2023-06-24T04:53:05;12.20;;;11.23;;
17398;SDS011;8817;48.170;8.592;2023-06-24T04:55:34;12.25;;;11.10;;
17398;SDS011;8817;48.170;8.592;2023-06-24T04:58:00;12.07;;;11.18;;
17398;SDS011;8817;48.170;8.592;2023-06-24T05:00:27;12.60;;;11.60;;
17398;SDS011;8817;48.170;8.592;2023-06-24T05:02:54;12.43;;;11.43;;
17398;SDS011;8817;48.170;8.592;2023-06-24T05:05:21;12.35;;;11.35;;
17398;SDS011;8817;48.170;8.592;2023-06-24T05:07:48;12.48;;;11.55;;
17398;SDS011;8817;48.170;8.592;2023-06-24T05:10:15;12.40;;;11.40;;
17398;SDS011;8817;48.170;8.592;2023-06-24T05:12:43;12.60;;;11.55;;
17398;SDS011;8817;48.170;8.592;2023-06-24T05:15:10;12.30;;;11.30;;
17398;SDS011;8817;48.170;8.592;2023-06-24T05:17:37;12.40;;;11.50;;
17398;SDS011;8817;48.170;8.592;2023-06-24T05:20:06;12.15;;;11.15;;
17398;SDS011;8817;48.170;8.592;2023-06-24T05:22:34;12.43;;;11.32;;
17398;SDS011;8817;48.170;8.592;2023-06-24T05:25:01;11.95;;;11.07;;
17398;SDS011;8817;48.170;8.592;2023-06-24T05:27:27;11.90;;;11.00;;
17398;SDS011;8817;48.170;8.592;2023-06-24T05:29:56;11.60;;;10.70;;
17398;SDS011;8817;48.170;8.592;2023-06-24T05:32:23;12.00;;;11.10;;
17398;SDS011;8817;48.170;8.592;2023-06-24T05:34:49;11.88;;;10.98;;
17398;SDS011;8817;48.170;8.592;2023-06-24T05:37:16;11.52;;;10.68;;
17398;SDS011;8817;48.170;8.592;2023-06-24T05:39:43;11.60;;;10.80;;
17398;SDS011;8817;48.170;8.592;2023-06-24T05:42:10;11.55;;;10.65;;
17398;SDS011;8817;48.170;8.592;2023-06-24T05:44:37;11.65;;;10.80;;
17398;SDS011;8817;48.170;8.592;2023-06-24T05:47:07;11.35;;;10.55;;
17398;SDS011;8817;48.170;8.592;2023-06-24T05:49:33;11.40;;;10.60;;
17398;SDS011;8817;48.170;8.592;2023-06-24T05:52:00;11.60;;;10.80;;
17398;SDS011;8817;48.170;8.592;2023-06-24T05:54:27;11.95;;;10.95;;
17398;SDS011;8817;48.170;8.592;2023-06-24T05:56:54;12.10;;;11.20;;
17398;SDS011;8817;48.170;8.592;2023-06-24T05:59:21;11.70;;;10.80;;
17398;SDS011;8817;48.170;8.592;2023-06-24T06:01:48;12.15;;;11.15;;
17398;SDS011;8817;48.170;8.592;2023-06-24T06:04:16;12.15;;;11.32;;
17398;SDS011;8817;48.170;8.592;2023-06-24T06:06:43;11.73;;;10.82;;
17398;SDS011;8817;48.170;8.592;2023-06-24T06:09:10;11.68;;;10.85;;
17398;SDS011;8817;48.170;8.592;2023-06-24T06:11:37;11.77;;;10.88;;
17398;SDS011;8817;48.170;8.592;2023-06-24T06:14:03;11.65;;;10.55;;
17398;SDS011;8817;48.170;8.592;2023-06-24T06:16:30;11.18;;;10.38;;
17398;SDS011;8817;48.170;8.592;2023-06-24T06:18:57;11.85;;;10.95;;
17398;SDS011;8817;48.170;8.592;2023-06-24T06:21:25;11.70;;;10.80;;
17398;SDS011;8817;48.170;8.592;2023-06-24T06:23:52;11.43;;;10.63;;
17398;SDS011;8817;48.170;8.592;2023-06-24T06:26:19;10.95;;;10.30;;
17398;SDS011;8817;48.170;8.592;2023-06-24T06:28:47;10.82;;;10.00;;
17398;SDS011;8817;48.170;8.592;2023-06-24T06:31:14;11.15;;;10.35;;
17398;SDS011;8817;48.170;8.592;2023-06-24T06:33:43;11.40;;;10.50;;
17398;SDS011;8817;48.170;8.592;2023-06-24T06:36:09;10.80;;;10.13;;
17398;SDS011;8817;48.170;8.592;2023-06-24T06:38:38;11.30;;;10.50;;
17398;SDS011;8817;48.170;8.592;2023-06-24T06:41:04;11.20;;;10.50;;
17398;SDS011;8817;48.170;8.592;2023-06-24T06:43:33;10.98;;;10.10;;
17398;SDS011;8817;48.170;8.592;2023-06-24T06:46:00;11.10;;;10.30;;
17398;SDS011;8817;48.170;8.592;2023-06-24T06:48:27;10.77;;;10.07;;
17398;SDS011;8817;48.170;8.592;2023-06-24T06:50:54;11.00;;;10.10;;
17398;SDS011;8817;48.170;8.592;2023-06-24T06:53:20;11.48;;;10.52;;
17398;SDS011;8817;48.170;8.592;2023-06-24T06:55:49;11.00;;;10.30;;
17398;SDS011;8817;48.170;8.592;2023-06-24T06:58:16;11.27;;;10.48;;
17398;SDS011;8817;48.170;8.592;2023-06-24T07:00:42;11.00;;;10.20;;
17398;SDS011;8817;48.170;8.592;2023-06-24T07:03:09;11.32;;;10.52;;
17398;SDS011;8817;48.170;8.592;2023-06-24T07:05:36;11.10;;;10.30;;
17398;SDS011;8817;48.170;8.592;2023-06-24T07:08:03;11.30;;;10.45;;
17398;SDS011;8817;48.170;8.592;2023-06-24T07:10:31;11.30;;;10.40;;
17398;SDS011;8817;48.170;8.592;2023-06-24T07:12:59;11.02;;;10.10;;
17398;SDS011;8817;48.170;8.592;2023-06-24T07:15:26;10.73;;;10.02;;
17398;SDS011;8817;48.170;8.592;2023-06-24T07:17:53;10.48;;;9.80;;
17398;SDS011;8817;48.170;8.592;2023-06-24T07:20:21;10.60;;;9.90;;
17398;SDS011;8817;48.170;8.592;2023-06-24T07:22:48;10.70;;;9.90;;
17398;SDS011;8817;48.170;8.592;2023-06-24T07:25:15;10.20;;;9.60;;
17398;SDS011;8817;48.170;8.592;2023-06-24T07:27:42;10.73;;;9.82;;
17398;SDS011;8817;48.170;8.592;2023-06-24T07:30:10;10.73;;;9.90;;
17398;SDS011;8817;48.170;8.592;2023-06-24T07:32:37;10.55;;;9.85;;
17398;SDS011;8817;48.170;8.592;2023-06-24T07:35:04;10.80;;;10.10;;
17398;SDS011;8817;48.170;8.592;2023-06-24T07:37:32;10.57;;;9.88;;
17398;SDS011;8817;48.170;8.592;2023-06-24T07:40:00;10.80;;;9.90;;
17398;SDS011;8817;48.170;8.592;2023-06-24T07:42:27;10.60;;;9.90;;
17398;SDS011;8817;48.170;8.592;2023-06-24T07:44:54;10.52;;;9.90;;
17398;SDS011;8817;48.170;8.592;2023-06-24T07:47:22;10.85;;;10.05;;
17398;SDS011;8817;48.170;8.592;2023-06-24T07:49:49;11.02;;;10.23;;
17398;SDS011;8817;48.170;8.592;2023-06-24T07:52:15;10.82;;;10.10;;
17398;SDS011;8817;48.170;8.592;2023-06-24T07:54:42;10.45;;;9.70;;
17398;SDS011;8817;48.170;8.592;2023-06-24T07:57:09;11.25;;;10.35;;
17398;SDS011;8817;48.170;8.592;2023-06-24T07:59:36;10.60;;;9.90;;
17398;SDS011;8817;48.170;8.592;2023-06-24T08:02:03;10.80;;;10.00;;
17398;SDS011;8817;48.170;8.592;2023-06-24T08:04:31;10.95;;;10.15;;
17398;SDS011;8817;48.170;8.592;2023-06-24T08:06:58;10.85;;;9.95;;
17398;SDS011;8817;48.170;8.592;2023-06-24T08:09:25;10.00;;;9.40;;
17398;SDS011;8817;48.170;8.592;2023-06-24T08:11:52;10.60;;;9.85;;
17398;SDS011;8817;48.170;8.592;2023-06-24T08:14:18;10.73;;;10.02;;
17398;SDS011;8817;48.170;8.592;2023-06-24T08:16:45;10.70;;;10.00;;
17398;SDS011;8817;48.170;8.592;2023-06-24T08:19:12;10.60;;;9.90;;
17398;SDS011;8817;48.170;8.592;2023-06-24T08:21:40;11.15;;;10.15;;
17398;SDS011;8817;48.170;8.592;2023-06-24T08:24:07;10.45;;;9.75;;
17398;SDS011;8817;48.170;8.592;2023-06-24T08:26:34;10.70;;;10.00;;
17398;SDS011;8817;48.170;8.592;2023-06-24T08:29:01;10.48;;;9.77;;
17398;SDS011;8817;48.170;8.592;2023-06-24T08:31:28;10.85;;;10.15;;
17398;SDS011;8817;48.170;8.592;2023-06-24T08:33:58;10.73;;;10.02;;
17398;SDS011;8817;48.170;8.592;2023-06-24T08:36:27;11.23;;;10.43;;
17398;SDS011;8817;48.170;8.592;2023-06-24T08:38:56;10.80;;;10.07;;
17398;SDS011;8817;48.170;8.592;2023-06-24T08:41:22;10.70;;;10.00;;
17398;SDS011;8817;48.170;8.592;2023-06-24T08:43:50;11.00;;;10.30;;
17398;SDS011;8817;48.170;8.592;2023-06-24T08:46:18;10.30;;;9.70;;
17398;SDS011;8817;48.170;8.592;2023-06-24T08:48:46;10.40;;;9.70;;
17398;SDS011;8817;48.170;8.592;2023-06-24T08:51:15;10.50;;;9.80;;
17398;SDS011;8817;48.170;8.592;2023-06-24T08:53:45;10.95;;;10.15;;
17398;SDS011;8817;48.170;8.592;2023-06-24T08:56:15;10.63;;;9.93;;
17398;SDS011;8817;48.170;8.592;2023-06-24T08:58:42;10.52;;;9.82;;
17398;SDS011;8817;48.170;8.592;2023-06-24T09:01:09;10.63;;;10.00;;
17398;SDS011;8817;48.170;8.592;2023-06-24T09:03:37;10.85;;;10.18;;
17398;SDS011;8817;48.170;8.592;2023-06-24T09:06:04;10.57;;;9.93;;
17398;SDS011;8817;48.170;8.592;2023-06-24T09:08:30;10.60;;;10.00;;
17398;SDS011;8817;48.170;8.592;2023-06-24T09:11:00;10.50;;;9.90;;
17398;SDS011;8817;48.170;8.592;2023-06-24T09:13:34;10.60;;;9.80;;
17398;SDS011;8817;48.170;8.592;2023-06-24T09:16:09;10.20;;;9.60;;
17398;SDS011;8817;48.170;8.592;2023-06-24T09:18:39;10.35;;;9.70;;
17398;SDS011;8817;48.170;8.592;2023-06-24T09:21:07;10.60;;;9.90;;
17398;SDS011;8817;48.170;8.592;2023-06-24T09:23:35;11.13;;;10.10;;
17398;SDS011;8817;48.170;8.592;2023-06-24T09:26:03;10.38;;;9.68;;
17398;SDS011;8817;48.170;8.592;2023-06-24T09:28:31;10.20;;;9.60;;
17398;SDS011;8817;48.170;8.592;2023-06-24T09:31:09;10.30;;;9.70;;
17398;SDS011;8817;48.170;8.592;2023-06-24T09:33:36;10.90;;;10.20;;
17398;SDS011;8817;48.170;8.592;2023-06-24T09:36:05;11.05;;;10.32;;
17398;SDS011;8817;48.170;8.592;2023-06-24T09:38:33;10.77;;;10.07;;
17398;SDS011;8817;48.170;8.592;2023-06-24T09:41:01;10.70;;;10.00;;
17398;SDS011;8817;48.170;8.592;2023-06-24T09:43:29;10.57;;;9.88;;
17398;SDS011;8817;48.170;8.592;2023-06-24T09:45:56;10.57;;;9.85;;
17398;SDS011;8817;48.170;8.592;2023-06-24T09:48:26;10.32;;;9.73;;
17398;SDS011;8817;48.170;8.592;2023-06-24T09:50:53;10.38;;;9.77;;
17398;SDS011;8817;48.170;8.592;2023-06-24T09:53:21;10.63;;;10.00;;
17398;SDS011;8817;48.170;8.592;2023-06-24T09:55:49;10.48;;;9.88;;
17398;SDS011;8817;48.170;8.592;2023-06-24T09:58:18;11.02;;;10.18;;
17398;SDS011;8817;48.170;8.592;2023-06-24T10:00:45;10.60;;;9.77;;
17398;SDS011;8817;48.170;8.592;2023-06-24T10:03:12;10.65;;;10.05;;
17398;SDS011;8817;48.170;8.592;2023-06-24T10:05:41;10.98;;;10.18;;
17398;SDS011;8817;48.170;8.592;2023-06-24T10:08:09;10.32;;;9.57;;
17398;SDS011;8817;48.170;8.592;2023-06-24T10:10:39;10.18;;;9.57;;
17398;SDS011;8817;48.170;8.592;2023-06-24T10:13:06;10.27;;;9.68;;
17398;SDS011;8817;48.170;8.592;2023-06-24T10:15:34;10.70;;;10.00;;
17398;SDS011;8817;48.170;8.592;2023-06-24T10:18:01;10.38;;;9.77;;
17398;SDS011;8817;48.170;8.592;2023-06-24T10:20:29;10.50;;;9.80;;
17398;SDS011;8817;48.170;8.592;2023-06-24T10:22:57;10.38;;;9.73;;
17398;SDS011;8817;48.170;8.592;2023-06-24T10:25:24;10.43;;;9.82;;
17398;SDS011;8817;48.170;8.592;2023-06-24T10:28:03;10.35;;;9.75;;
17398;SDS011;8817;48.170;8.592;2023-06-24T10:30:30;10.48;;;9.85;;
17398;SDS011;8817;48.170;8.592;2023-06-24T10:32:58;10.25;;;9.65;;
17398;SDS011;8817;48.170;8.592;2023-06-24T10:35:26;10.30;;;9.70;;
17398;SDS011;8817;48.170;8.592;2023-06-24T10:37:56;10.50;;;9.90;;
17398;SDS011;8817;48.170;8.592;2023-06-24T10:40:34;10.50;;;9.80;;
17398;SDS011;8817;48.170;8.592;2023-06-24T10:43:03;10.60;;;9.90;;
17398;SDS011;8817;48.170;8.592;2023-06-24T10:45:51;10.43;;;9.82;;
17398;SDS011;8817;48.170;8.592;2023-06-24T10:48:19;10.70;;;10.00;;
17398;SDS011;8817;48.170;8.592;2023-06-24T10:50:46;10.48;;;9.68;;
17398;SDS011;8817;48.170;8.592;2023-06-24T10:53:15;10.32;;;9.60;;
17398;SDS011;8817;48.170;8.592;2023-06-24T10:55:44;10.82;;;10.02;;
17398;SDS011;8817;48.170;8.592;2023-06-24T10:58:12;10.60;;;9.90;;
17398;SDS011;8817;48.170;8.592;2023-06-24T11:00:40;10.38;;;9.77;;
17398;SDS011;8817;48.170;8.592;2023-06-24T11:03:09;10.65;;;9.95;;
17398;SDS011;8817;48.170;8.592;2023-06-24T11:05:40;10.68;;;9.98;;
17398;SDS011;8817;48.170;8.592;2023-06-24T11:08:07;10.20;;;9.60;;
17398;SDS011;8817;48.170;8.592;2023-06-24T11:10:42;10.57;;;9.98;;
17398;SDS011;8817;48.170;8.592;2023-06-24T11:13:10;10.50;;;9.80;;
17398;SDS011;8817;48.170;8.592;2023-06-24T11:15:37;10.52;;;9.85;;
17398;SDS011;8817;48.170;8.592;2023-06-24T11:18:07;10.10;;;9.50;;
17398;SDS011;8817;48.170;8.592;2023-06-24T11:20:35;10.60;;;9.90;;
17398;SDS011;8817;48.170;8.592;2023-06-24T11:23:02;10.25;;;9.65;;
17398;SDS011;8817;48.170;8.592;2023-06-24T11:25:38;10.80;;;10.10;;
17398;SDS011;8817;48.170;8.592;2023-06-24T11:28:12;10.50;;;9.80;;
17398;SDS011;8817;48.170;8.592;2023-06-24T11:30:40;10.20;;;9.60;;
17398;SDS011;8817;48.170;8.592;2023-06-24T11:33:07;10.55;;;9.95;;
17398;SDS011;8817;48.170;8.592;2023-06-24T11:35:34;10.88;;;10.20;;
17398;SDS011;8817;48.170;8.592;2023-06-24T11:38:02;10.50;;;9.70;;
17398;SDS011;8817;48.170;8.592;2023-06-24T11:40:30;13.10;;;10.02;;
17398;SDS011;8817;48.170;8.592;2023-06-24T11:42:59;10.30;;;9.70;;
17398;SDS011;8817;48.170;8.592;2023-06-24T11:45:28;10.32;;;9.73;;
17398;SDS011;8817;48.170;8.592;2023-06-24T11:48:01;10.40;;;9.70;;
17398;SDS011;8817;48.170;8.592;2023-06-24T11:50:30;10.35;;;9.75;;
17398;SDS011;8817;48.170;8.592;2023-06-24T11:52:58;10.50;;;9.70;;
17398;SDS011;8817;48.170;8.592;2023-06-24T11:55:31;10.77;;;10.07;;
17398;SDS011;8817;48.170;8.592;2023-06-24T11:58:01;10.10;;;9.50;;
17398;SDS011;8817;48.170;8.592;2023-06-24T12:00:31;10.10;;;9.50;;
17398;SDS011;8817;48.170;8.592;2023-06-24T12:03:01;10.18;;;9.57;;
17398;SDS011;8817;48.170;8.592;2023-06-24T12:05:30;10.10;;;9.40;;
17398;SDS011;8817;48.170;8.592;2023-06-24T12:07:59;10.60;;;9.90;;
17398;SDS011;8817;48.170;8.592;2023-06-24T12:10:27;10.52;;;9.88;;
17398;SDS011;8817;48.170;8.592;2023-06-24T12:12:57;10.23;;;9.63;;
17398;SDS011;8817;48.170;8.592;2023-06-24T12:15:24;10.13;;;9.52;;
17398;SDS011;8817;48.170;8.592;2023-06-24T12:17:52;10.20;;;9.60;;
17398;SDS011;8817;48.170;8.592;2023-06-24T12:20:19;10.20;;;9.60;;
17398;SDS011;8817;48.170;8.592;2023-06-24T12:22:47;10.10;;;9.50;;
17398;SDS011;8817;48.170;8.592;2023-06-24T12:25:15;10.50;;;9.60;;
17398;SDS011;8817;48.170;8.592;2023-06-24T12:27:43;10.07;;;9.48;;
17398;SDS011;8817;48.170;8.592;2023-06-24T12:30:11;10.10;;;9.50;;
17398;SDS011;8817;48.170;8.592;2023-06-24T12:32:38;10.27;;;9.57;;
17398;SDS011;8817;48.170;8.592;2023-06-24T12:35:08;10.10;;;9.50;;
17398;SDS011;8817;48.170;8.592;2023-06-24T12:37:35;10.30;;;9.70;;
17398;SDS011;8817;48.170;8.592;2023-06-24T12:40:03;10.18;;;9.48;;
17398;SDS011;8817;48.170;8.592;2023-06-24T12:42:30;10.35;;;9.60;;
17398;SDS011;8817;48.170;8.592;2023-06-24T12:44:57;10.38;;;9.77;;
17398;SDS011;8817;48.170;8.592;2023-06-24T12:47:25;10.50;;;9.80;;
17398;SDS011;8817;48.170;8.592;2023-06-24T12:49:52;9.98;;;9.38;;
17398;SDS011;8817;48.170;8.592;2023-06-24T12:52:21;9.95;;;9.35;;
17398;SDS011;8817;48.170;8.592;2023-06-24T12:54:47;10.43;;;9.82;;
17398;SDS011;8817;48.170;8.592;2023-06-24T12:57:14;10.63;;;9.82;;
17398;SDS011;8817;48.170;8.592;2023-06-24T12:59:41;10.65;;;9.95;;
17398;SDS011;8817;48.170;8.592;2023-06-24T13:02:08;10.00;;;9.40;;
17398;SDS011;8817;48.170;8.592;2023-06-24T13:04:35;10.18;;;9.57;;
17398;SDS011;8817;48.170;8.592;2023-06-24T13:07:02;9.70;;;9.20;;
17398;SDS011;8817;48.170;8.592;2023-06-24T13:09:31;9.90;;;9.30;;
17398;SDS011;8817;48.170;8.592;2023-06-24T13:11:58;10.27;;;9.57;;
17398;SDS011;8817;48.170;8.592;2023-06-24T13:14:25;10.23;;;9.63;;
17398;SDS011;8817;48.170;8.592;2023-06-24T13:16:53;10.45;;;9.77;;
17398;SDS011;8817;48.170;8.592;2023-06-24T13:19:20;10.00;;;9.48;;
17398;SDS011;8817;48.170;8.592;2023-06-24T13:21:47;10.73;;;9.95;;
17398;SDS011;8817;48.170;8.592;2023-06-24T13:24:14;10.13;;;9.55;;
17398;SDS011;8817;48.170;8.592;2023-06-24T13:26:42;10.20;;;9.50;;
17398;SDS011;8817;48.170;8.592;2023-06-24T13:29:09;10.40;;;9.70;;
17398;SDS011;8817;48.170;8.592;2023-06-24T13:31:36;9.98;;;9.48;;
17398;SDS011;8817;48.170;8.592;2023-06-24T13:34:03;10.55;;;9.90;;
17398;SDS011;8817;48.170;8.592;2023-06-24T13:36:31;10.23;;;9.52;;
17398;SDS011;8817;48.170;8.592;2023-06-24T13:39:00;10.73;;;10.02;;
17398;SDS011;8817;48.170;8.592;2023-06-24T13:41:28;10.23;;;9.63;;
17398;SDS011;8817;48.170;8.592;2023-06-24T13:43:58;10.82;;;9.82;;
17398;SDS011;8817;48.170;8.592;2023-06-24T13:46:25;10.70;;;10.00;;
17398;SDS011;8817;48.170;8.592;2023-06-24T13:48:53;10.32;;;9.73;;
17398;SDS011;8817;48.170;8.592;2023-06-24T13:51:20;10.30;;;9.70;;
17398;SDS011;8817;48.170;8.592;2023-06-24T13:53:47;10.80;;;10.00;;
17398;SDS011;8817;48.170;8.592;2023-06-24T13:56:16;10.15;;;9.55;;
17398;SDS011;8817;48.170;8.592;2023-06-24T13:58:45;10.57;;;9.88;;
17398;SDS011;8817;48.170;8.592;2023-06-24T14:01:13;10.40;;;9.80;;
17398;SDS011;8817;48.170;8.592;2023-06-24T14:03:40;10.50;;;9.90;;
17398;SDS011;8817;48.170;8.592;2023-06-24T14:06:07;10.40;;;9.80;;
17398;SDS011;8817;48.170;8.592;2023-06-24T14:08:35;10.32;;;9.73;;
17398;SDS011;8817;48.170;8.592;2023-06-24T14:11:02;10.63;;;9.93;;
17398;SDS011;8817;48.170;8.592;2023-06-24T14:13:29;10.43;;;9.70;;
17398;SDS011;8817;48.170;8.592;2023-06-24T14:15:57;10.48;;;9.88;;
17398;SDS011;8817;48.170;8.592;2023-06-24T14:18:26;10.40;;;9.80;;
17398;SDS011;8817;48.170;8.592;2023-06-24T14:20:53;10.20;;;9.60;;
17398;SDS011;8817;48.170;8.592;2023-06-24T14:23:20;10.43;;;9.82;;
17398;SDS011;8817;48.170;8.592;2023-06-24T14:25:46;10.73;;;9.98;;
17398;SDS011;8817;48.170;8.592;2023-06-24T14:28:13;10.30;;;9.70;;
17398;SDS011;8817;48.170;8.592;2023-06-24T14:30:40;10.45;;;9.85;;
17398;SDS011;8817;48.170;8.592;2023-06-24T14:33:07;10.18;;;9.57;;
17398;SDS011;8817;48.170;8.592;2023-06-24T14:35:36;10.75;;;9.95;;
17398;SDS011;8817;48.170;8.592;2023-06-24T14:38:02;10.65;;;9.95;;
17398;SDS011;8817;48.170;8.592;2023-06-24T14:40:29;10.20;;;9.60;;
17398;SDS011;8817;48.170;8.592;2023-06-24T14:42:57;10.07;;;9.48;;
17398;SDS011;8817;48.170;8.592;2023-06-24T14:45:24;10.30;;;9.70;;
17398;SDS011;8817;48.170;8.592;2023-06-24T14:47:50;10.48;;;9.77;;
17398;SDS011;8817;48.170;8.592;2023-06-24T14:50:18;10.18;;;9.57;;